sensor_id;sensor_type;location;lat;lon;timestamp;P1;durP1;ratioP1;P2;durP2;ratioP2
12908;SDS011;6522;49.622;6.126;2024-03-22T00:00:18;13.23;;;12.52;;
12908;SDS011;6522;49.622;6.126;2024-03-22T00:03:05;13.68;;;12.68;;
12908;SDS011;6522;49.622;6.126;2024-03-22T00:05:52;12.48;;;11.63;;
12908;SDS011;6522;49.622;6.126;2024-03-22T00:08:38;13.75;;;12.60;;
12908;SDS011;6522;49.622;6.126;2024-03-22T00:11:25;13.20;;;12.40;;
12908;SDS011;6522;49.622;6.126;2024-03-22T00:14:12;12.27;;;11.48;;
12908;SDS011;6522;49.622;6.126;2024-03-22T00:16:58;13.27;;;12.37;;
12908;SDS011;6522;49.622;6.126;2024-03-22T00:19:45;15.80;;;14.40;;
12908;SDS011;6522;49.622;6.126;2024-03-22T00:22:32;13.32;;;12.45;;
12908;SDS011;6522;49.622;6.126;2024-03-22T00:25:19;12.50;;;11.60;;
12908;SDS011;6522;49.622;6.126;2024-03-22T00:28:06;13.18;;;12.37;;
12908;SDS011;6522;49.622;6.126;2024-03-22T00:30:52;12.65;;;11.75;;
12908;SDS011;6522;49.622;6.126;2024-03-22T00:33:40;12.13;;;11.23;;
12908;SDS011;6522;49.622;6.126;2024-03-22T00:36:26;12.85;;;11.88;;
12908;SDS011;6522;49.622;6.126;2024-03-22T00:39:13;12.25;;;11.45;;
12908;SDS011;6522;49.622;6.126;2024-03-22T00:42:00;12.40;;;11.60;;
12908;SDS011;6522;49.622;6.126;2024-03-22T00:44:46;12.73;;;11.88;;
12908;SDS011;6522;49.622;6.126;2024-03-22T00:47:33;12.02;;;11.23;;
12908;SDS011;6522;49.622;6.126;2024-03-22T00:50:20;10.10;;;9.30;;
12908;SDS011;6522;49.622;6.126;2024-03-22T00:53:07;14.40;;;13.30;;
12908;SDS011;6522;49.622;6.126;2024-03-22T00:55:54;12.90;;;12.10;;
12908;SDS011;6522;49.622;6.126;2024-03-22T00:58:40;13.32;;;12.23;;
12908;SDS011;6522;49.622;6.126;2024-03-22T01:01:27;13.15;;;11.95;;
12908;SDS011;6522;49.622;6.126;2024-03-22T01:04:14;12.23;;;11.52;;
12908;SDS011;6522;49.622;6.126;2024-03-22T01:07:00;11.93;;;11.23;;
12908;SDS011;6522;49.622;6.126;2024-03-22T01:09:47;12.77;;;11.77;;
12908;SDS011;6522;49.622;6.126;2024-03-22T01:12:34;11.20;;;10.50;;
12908;SDS011;6522;49.622;6.126;2024-03-22T01:15:21;13.07;;;12.07;;
12908;SDS011;6522;49.622;6.126;2024-03-22T01:18:08;12.60;;;11.80;;
12908;SDS011;6522;49.622;6.126;2024-03-22T01:20:55;11.52;;;10.63;;
12908;SDS011;6522;49.622;6.126;2024-03-22T01:23:41;12.48;;;11.55;;
12908;SDS011;6522;49.622;6.126;2024-03-22T01:26:28;9.40;;;8.50;;
12908;SDS011;6522;49.622;6.126;2024-03-22T01:29:15;13.40;;;12.40;;
12908;SDS011;6522;49.622;6.126;2024-03-22T01:32:02;11.68;;;10.95;;
12908;SDS011;6522;49.622;6.126;2024-03-22T01:34:48;11.73;;;10.77;;
12908;SDS011;6522;49.622;6.126;2024-03-22T01:37:35;11.93;;;11.20;;
12908;SDS011;6522;49.622;6.126;2024-03-22T01:40:21;12.00;;;11.30;;
12908;SDS011;6522;49.622;6.126;2024-03-22T01:43:08;13.80;;;12.50;;
12908;SDS011;6522;49.622;6.126;2024-03-22T01:45:55;10.57;;;9.57;;
12908;SDS011;6522;49.622;6.126;2024-03-22T01:48:42;12.25;;;11.50;;
12908;SDS011;6522;49.622;6.126;2024-03-22T01:51:29;12.35;;;11.40;;
12908;SDS011;6522;49.622;6.126;2024-03-22T01:54:16;12.63;;;11.82;;
12908;SDS011;6522;49.622;6.126;2024-03-22T01:57:03;9.43;;;8.63;;
12908;SDS011;6522;49.622;6.126;2024-03-22T01:59:49;11.12;;;10.32;;
12908;SDS011;6522;49.622;6.126;2024-03-22T02:02:36;11.10;;;10.30;;
12908;SDS011;6522;49.622;6.126;2024-03-22T02:05:22;10.98;;;10.18;;
12908;SDS011;6522;49.622;6.126;2024-03-22T02:08:09;9.45;;;8.85;;
12908;SDS011;6522;49.622;6.126;2024-03-22T02:10:56;10.25;;;9.45;;
12908;SDS011;6522;49.622;6.126;2024-03-22T02:13:43;9.90;;;9.10;;
12908;SDS011;6522;49.622;6.126;2024-03-22T02:16:30;10.43;;;9.63;;
12908;SDS011;6522;49.622;6.126;2024-03-22T02:19:16;9.88;;;9.18;;
12908;SDS011;6522;49.622;6.126;2024-03-22T02:22:03;10.15;;;9.35;;
12908;SDS011;6522;49.622;6.126;2024-03-22T02:24:50;10.10;;;9.40;;
12908;SDS011;6522;49.622;6.126;2024-03-22T02:27:37;9.80;;;9.10;;
12908;SDS011;6522;49.622;6.126;2024-03-22T02:30:23;11.93;;;10.80;;
12908;SDS011;6522;49.622;6.126;2024-03-22T02:33:09;10.15;;;8.95;;
12908;SDS011;6522;49.622;6.126;2024-03-22T02:35:57;9.90;;;9.02;;
12908;SDS011;6522;49.622;6.126;2024-03-22T02:38:43;9.88;;;9.15;;
12908;SDS011;6522;49.622;6.126;2024-03-22T02:41:30;9.98;;;9.18;;
12908;SDS011;6522;49.622;6.126;2024-03-22T02:44:17;10.30;;;9.07;;
12908;SDS011;6522;49.622;6.126;2024-03-22T02:47:04;9.52;;;8.73;;
12908;SDS011;6522;49.622;6.126;2024-03-22T02:49:50;11.40;;;10.40;;
12908;SDS011;6522;49.622;6.126;2024-03-22T02:52:37;11.40;;;10.50;;
12908;SDS011;6522;49.622;6.126;2024-03-22T02:55:23;10.40;;;9.60;;
12908;SDS011;6522;49.622;6.126;2024-03-22T02:58:10;12.02;;;11.07;;
12908;SDS011;6522;49.622;6.126;2024-03-22T03:00:57;10.70;;;9.90;;
12908;SDS011;6522;49.622;6.126;2024-03-22T03:03:43;10.30;;;9.30;;
12908;SDS011;6522;49.622;6.126;2024-03-22T03:06:30;11.68;;;10.88;;
12908;SDS011;6522;49.622;6.126;2024-03-22T03:09:17;12.68;;;11.68;;
12908;SDS011;6522;49.622;6.126;2024-03-22T03:12:04;13.45;;;12.20;;
12908;SDS011;6522;49.622;6.126;2024-03-22T03:14:51;12.35;;;11.45;;
12908;SDS011;6522;49.622;6.126;2024-03-22T03:17:37;11.10;;;9.82;;
12908;SDS011;6522;49.622;6.126;2024-03-22T03:20:24;13.57;;;12.52;;
12908;SDS011;6522;49.622;6.126;2024-03-22T03:23:11;12.68;;;11.88;;
12908;SDS011;6522;49.622;6.126;2024-03-22T03:25:58;10.25;;;9.35;;
12908;SDS011;6522;49.622;6.126;2024-03-22T03:28:45;13.65;;;12.75;;
12908;SDS011;6522;49.622;6.126;2024-03-22T03:31:32;12.88;;;11.85;;
12908;SDS011;6522;49.622;6.126;2024-03-22T03:34:18;13.95;;;11.68;;
12908;SDS011;6522;49.622;6.126;2024-03-22T03:37:05;12.52;;;11.43;;
12908;SDS011;6522;49.622;6.126;2024-03-22T03:39:52;12.10;;;11.30;;
12908;SDS011;6522;49.622;6.126;2024-03-22T03:42:38;13.45;;;12.20;;
12908;SDS011;6522;49.622;6.126;2024-03-22T03:45:25;11.40;;;10.50;;
12908;SDS011;6522;49.622;6.126;2024-03-22T03:48:12;12.23;;;11.05;;
12908;SDS011;6522;49.622;6.126;2024-03-22T03:50:58;12.07;;;10.98;;
12908;SDS011;6522;49.622;6.126;2024-03-22T03:53:45;11.75;;;10.85;;
12908;SDS011;6522;49.622;6.126;2024-03-22T03:56:33;15.93;;;14.85;;
12908;SDS011;6522;49.622;6.126;2024-03-22T03:59:19;11.45;;;10.65;;
12908;SDS011;6522;49.622;6.126;2024-03-22T04:02:06;12.80;;;11.10;;
12908;SDS011;6522;49.622;6.126;2024-03-22T04:04:53;13.62;;;12.23;;
12908;SDS011;6522;49.622;6.126;2024-03-22T04:07:40;12.75;;;11.85;;
12908;SDS011;6522;49.622;6.126;2024-03-22T04:10:26;12.52;;;11.50;;
12908;SDS011;6522;49.622;6.126;2024-03-22T04:13:13;12.68;;;11.68;;
12908;SDS011;6522;49.622;6.126;2024-03-22T04:15:59;11.52;;;10.43;;
12908;SDS011;6522;49.622;6.126;2024-03-22T04:18:46;11.45;;;10.45;;
12908;SDS011;6522;49.622;6.126;2024-03-22T04:21:33;11.50;;;10.60;;
12908;SDS011;6522;49.622;6.126;2024-03-22T04:24:20;11.90;;;10.82;;
12908;SDS011;6522;49.622;6.126;2024-03-22T04:27:06;11.15;;;10.30;;
12908;SDS011;6522;49.622;6.126;2024-03-22T04:29:53;11.07;;;10.02;;
12908;SDS011;6522;49.622;6.126;2024-03-22T04:32:39;10.60;;;9.90;;
12908;SDS011;6522;49.622;6.126;2024-03-22T04:35:26;11.10;;;10.13;;
12908;SDS011;6522;49.622;6.126;2024-03-22T04:38:13;14.15;;;10.15;;
12908;SDS011;6522;49.622;6.126;2024-03-22T04:41:00;11.12;;;10.13;;
12908;SDS011;6522;49.622;6.126;2024-03-22T04:43:47;10.75;;;9.82;;
12908;SDS011;6522;49.622;6.126;2024-03-22T04:46:33;11.48;;;10.40;;
12908;SDS011;6522;49.622;6.126;2024-03-22T04:49:20;10.80;;;9.80;;
12908;SDS011;6522;49.622;6.126;2024-03-22T04:52:07;11.07;;;9.80;;
12908;SDS011;6522;49.622;6.126;2024-03-22T04:54:54;10.52;;;9.73;;
12908;SDS011;6522;49.622;6.126;2024-03-22T04:57:41;10.30;;;9.48;;
12908;SDS011;6522;49.622;6.126;2024-03-22T05:00:28;11.05;;;10.02;;
12908;SDS011;6522;49.622;6.126;2024-03-22T05:03:15;12.65;;;11.40;;
12908;SDS011;6522;49.622;6.126;2024-03-22T05:06:02;10.65;;;9.75;;
12908;SDS011;6522;49.622;6.126;2024-03-22T05:08:48;13.48;;;12.37;;
12908;SDS011;6522;49.622;6.126;2024-03-22T05:11:35;12.55;;;11.35;;
12908;SDS011;6522;49.622;6.126;2024-03-22T05:14:22;15.02;;;10.88;;
12908;SDS011;6522;49.622;6.126;2024-03-22T05:17:08;11.60;;;10.50;;
12908;SDS011;6522;49.622;6.126;2024-03-22T05:19:55;14.57;;;13.18;;
12908;SDS011;6522;49.622;6.126;2024-03-22T05:22:42;12.70;;;11.70;;
12908;SDS011;6522;49.622;6.126;2024-03-22T05:25:29;12.88;;;11.63;;
12908;SDS011;6522;49.622;6.126;2024-03-22T05:28:16;12.68;;;11.57;;
12908;SDS011;6522;49.622;6.126;2024-03-22T05:31:02;19.25;;;11.30;;
12908;SDS011;6522;49.622;6.126;2024-03-22T05:33:49;11.45;;;10.43;;
12908;SDS011;6522;49.622;6.126;2024-03-22T05:36:36;12.82;;;11.63;;
12908;SDS011;6522;49.622;6.126;2024-03-22T05:39:23;12.15;;;11.15;;
12908;SDS011;6522;49.622;6.126;2024-03-22T05:42:10;12.20;;;11.10;;
12908;SDS011;6522;49.622;6.126;2024-03-22T05:44:56;12.90;;;11.70;;
12908;SDS011;6522;49.622;6.126;2024-03-22T05:47:43;12.32;;;11.20;;
12908;SDS011;6522;49.622;6.126;2024-03-22T05:50:29;12.88;;;11.77;;
12908;SDS011;6522;49.622;6.126;2024-03-22T05:53:17;11.43;;;10.63;;
12908;SDS011;6522;49.622;6.126;2024-03-22T05:56:04;12.27;;;11.07;;
12908;SDS011;6522;49.622;6.126;2024-03-22T05:58:50;11.90;;;11.00;;
12908;SDS011;6522;49.622;6.126;2024-03-22T06:01:37;12.77;;;11.68;;
12908;SDS011;6522;49.622;6.126;2024-03-22T06:04:27;13.13;;;12.10;;
12908;SDS011;6522;49.622;6.126;2024-03-22T06:07:14;12.57;;;11.38;;
12908;SDS011;6522;49.622;6.126;2024-03-22T06:10:01;12.10;;;11.00;;
12908;SDS011;6522;49.622;6.126;2024-03-22T06:12:48;12.50;;;11.43;;
12908;SDS011;6522;49.622;6.126;2024-03-22T06:15:35;11.07;;;10.18;;
12908;SDS011;6522;49.622;6.126;2024-03-22T06:18:22;11.98;;;10.27;;
12908;SDS011;6522;49.622;6.126;2024-03-22T06:21:08;12.07;;;11.07;;
12908;SDS011;6522;49.622;6.126;2024-03-22T06:23:55;12.27;;;10.73;;
12908;SDS011;6522;49.622;6.126;2024-03-22T06:26:42;12.27;;;10.98;;
12908;SDS011;6522;49.622;6.126;2024-03-22T06:29:28;13.80;;;10.93;;
12908;SDS011;6522;49.622;6.126;2024-03-22T06:32:15;13.98;;;10.88;;
12908;SDS011;6522;49.622;6.126;2024-03-22T06:35:02;11.82;;;10.63;;
12908;SDS011;6522;49.622;6.126;2024-03-22T06:37:48;12.68;;;11.48;;
12908;SDS011;6522;49.622;6.126;2024-03-22T06:40:35;11.98;;;10.70;;
12908;SDS011;6522;49.622;6.126;2024-03-22T06:43:22;15.45;;;12.48;;
12908;SDS011;6522;49.622;6.126;2024-03-22T06:46:09;15.93;;;11.70;;
12908;SDS011;6522;49.622;6.126;2024-03-22T06:48:55;14.23;;;12.93;;
12908;SDS011;6522;49.622;6.126;2024-03-22T06:51:42;13.55;;;12.35;;
12908;SDS011;6522;49.622;6.126;2024-03-22T06:54:29;14.02;;;12.82;;
12908;SDS011;6522;49.622;6.126;2024-03-22T06:57:16;14.18;;;12.93;;
12908;SDS011;6522;49.622;6.126;2024-03-22T07:00:03;13.30;;;12.10;;
12908;SDS011;6522;49.622;6.126;2024-03-22T07:02:49;14.05;;;12.70;;
12908;SDS011;6522;49.622;6.126;2024-03-22T07:05:36;14.30;;;13.10;;
12908;SDS011;6522;49.622;6.126;2024-03-22T07:08:23;14.43;;;12.90;;
12908;SDS011;6522;49.622;6.126;2024-03-22T07:11:10;18.33;;;13.55;;
12908;SDS011;6522;49.622;6.126;2024-03-22T07:13:57;13.48;;;12.50;;
12908;SDS011;6522;49.622;6.126;2024-03-22T07:16:43;15.45;;;14.13;;
12908;SDS011;6522;49.622;6.126;2024-03-22T07:19:30;19.58;;;12.77;;
12908;SDS011;6522;49.622;6.126;2024-03-22T07:22:17;15.30;;;13.80;;
12908;SDS011;6522;49.622;6.126;2024-03-22T07:25:03;15.82;;;14.13;;
12908;SDS011;6522;49.622;6.126;2024-03-22T07:27:50;16.08;;;14.10;;
12908;SDS011;6522;49.622;6.126;2024-03-22T07:30:37;16.75;;;15.05;;
12908;SDS011;6522;49.622;6.126;2024-03-22T07:33:23;17.17;;;15.55;;
12908;SDS011;6522;49.622;6.126;2024-03-22T07:36:10;16.80;;;15.45;;
12908;SDS011;6522;49.622;6.126;2024-03-22T07:38:57;15.32;;;14.07;;
12908;SDS011;6522;49.622;6.126;2024-03-22T07:41:44;30.08;;;16.73;;
12908;SDS011;6522;49.622;6.126;2024-03-22T07:44:30;17.95;;;16.35;;
12908;SDS011;6522;49.622;6.126;2024-03-22T07:47:17;16.70;;;15.20;;
12908;SDS011;6522;49.622;6.126;2024-03-22T07:50:04;17.87;;;16.62;;
12908;SDS011;6522;49.622;6.126;2024-03-22T07:53:59;17.15;;;15.48;;
12908;SDS011;6522;49.622;6.126;2024-03-22T07:56:46;19.45;;;18.05;;
12908;SDS011;6522;49.622;6.126;2024-03-22T07:59:33;16.10;;;14.77;;
12908;SDS011;6522;49.622;6.126;2024-03-22T08:02:20;20.75;;;19.27;;
12908;SDS011;6522;49.622;6.126;2024-03-22T08:05:07;19.77;;;18.27;;
12908;SDS011;6522;49.622;6.126;2024-03-22T08:07:54;19.98;;;18.52;;
12908;SDS011;6522;49.622;6.126;2024-03-22T08:10:41;20.62;;;18.98;;
12908;SDS011;6522;49.622;6.126;2024-03-22T08:13:27;20.23;;;18.65;;
12908;SDS011;6522;49.622;6.126;2024-03-22T08:16:14;19.77;;;18.40;;
12908;SDS011;6522;49.622;6.126;2024-03-22T08:19:01;21.17;;;19.45;;
12908;SDS011;6522;49.622;6.126;2024-03-22T08:21:47;19.73;;;18.12;;
12908;SDS011;6522;49.622;6.126;2024-03-22T08:24:34;21.23;;;19.50;;
12908;SDS011;6522;49.622;6.126;2024-03-22T08:27:21;20.50;;;18.80;;
12908;SDS011;6522;49.622;6.126;2024-03-22T08:30:08;20.27;;;18.77;;
12908;SDS011;6522;49.622;6.126;2024-03-22T08:32:55;21.52;;;19.62;;
12908;SDS011;6522;49.622;6.126;2024-03-22T08:35:42;20.35;;;18.85;;
12908;SDS011;6522;49.622;6.126;2024-03-22T08:38:29;20.40;;;18.75;;
12908;SDS011;6522;49.622;6.126;2024-03-22T08:41:16;22.23;;;20.25;;
12908;SDS011;6522;49.622;6.126;2024-03-22T08:44:02;22.37;;;20.58;;
12908;SDS011;6522;49.622;6.126;2024-03-22T08:46:49;23.45;;;21.25;;
12908;SDS011;6522;49.622;6.126;2024-03-22T08:49:35;24.02;;;22.30;;
12908;SDS011;6522;49.622;6.126;2024-03-22T08:52:22;23.83;;;22.13;;
12908;SDS011;6522;49.622;6.126;2024-03-22T08:55:09;24.50;;;22.70;;
12908;SDS011;6522;49.622;6.126;2024-03-22T08:57:55;21.52;;;19.73;;
12908;SDS011;6522;49.622;6.126;2024-03-22T09:00:42;28.90;;;26.67;;
12908;SDS011;6522;49.622;6.126;2024-03-22T09:03:29;27.50;;;25.40;;
12908;SDS011;6522;49.622;6.126;2024-03-22T09:06:15;29.60;;;26.98;;
12908;SDS011;6522;49.622;6.126;2024-03-22T09:09:02;29.63;;;27.35;;
12908;SDS011;6522;49.622;6.126;2024-03-22T09:11:49;29.50;;;27.33;;
12908;SDS011;6522;49.622;6.126;2024-03-22T09:14:35;25.43;;;23.33;;
12908;SDS011;6522;49.622;6.126;2024-03-22T09:17:22;26.12;;;23.92;;
12908;SDS011;6522;49.622;6.126;2024-03-22T09:20:09;29.05;;;26.77;;
12908;SDS011;6522;49.622;6.126;2024-03-22T09:22:56;30.95;;;28.58;;
12908;SDS011;6522;49.622;6.126;2024-03-22T09:25:43;30.75;;;28.33;;
12908;SDS011;6522;49.622;6.126;2024-03-22T09:28:29;30.35;;;27.80;;
12908;SDS011;6522;49.622;6.126;2024-03-22T09:31:16;32.30;;;29.75;;
12908;SDS011;6522;49.622;6.126;2024-03-22T09:34:02;31.60;;;29.40;;
12908;SDS011;6522;49.622;6.126;2024-03-22T09:36:49;32.28;;;29.77;;
12908;SDS011;6522;49.622;6.126;2024-03-22T09:39:36;30.50;;;28.30;;
12908;SDS011;6522;49.622;6.126;2024-03-22T09:42:23;32.83;;;30.62;;
12908;SDS011;6522;49.622;6.126;2024-03-22T09:45:09;32.90;;;29.83;;
12908;SDS011;6522;49.622;6.126;2024-03-22T09:47:56;31.67;;;29.63;;
12908;SDS011;6522;49.622;6.126;2024-03-22T09:50:43;31.33;;;29.02;;
12908;SDS011;6522;49.622;6.126;2024-03-22T09:53:30;30.80;;;27.80;;
12908;SDS011;6522;49.622;6.126;2024-03-22T09:56:17;30.90;;;28.70;;
12908;SDS011;6522;49.622;6.126;2024-03-22T09:59:03;28.62;;;26.42;;
12908;SDS011;6522;49.622;6.126;2024-03-22T10:01:50;30.40;;;28.20;;
12908;SDS011;6522;49.622;6.126;2024-03-22T10:04:37;28.95;;;26.85;;
12908;SDS011;6522;49.622;6.126;2024-03-22T10:07:25;31.15;;;28.65;;
12908;SDS011;6522;49.622;6.126;2024-03-22T10:10:11;31.23;;;28.83;;
12908;SDS011;6522;49.622;6.126;2024-03-22T10:13:00;29.75;;;27.13;;
12908;SDS011;6522;49.622;6.126;2024-03-22T10:15:45;27.48;;;25.37;;
12908;SDS011;6522;49.622;6.126;2024-03-22T10:18:32;28.87;;;26.30;;
12908;SDS011;6522;49.622;6.126;2024-03-22T10:21:19;30.77;;;28.33;;
12908;SDS011;6522;49.622;6.126;2024-03-22T10:24:05;26.60;;;24.35;;
12908;SDS011;6522;49.622;6.126;2024-03-22T10:26:52;30.42;;;27.73;;
12908;SDS011;6522;49.622;6.126;2024-03-22T10:29:39;33.17;;;30.67;;
12908;SDS011;6522;49.622;6.126;2024-03-22T10:32:25;28.85;;;26.17;;
12908;SDS011;6522;49.622;6.126;2024-03-22T10:35:13;32.87;;;30.20;;
12908;SDS011;6522;49.622;6.126;2024-03-22T10:37:59;31.65;;;29.20;;
12908;SDS011;6522;49.622;6.126;2024-03-22T10:40:45;30.58;;;28.02;;
12908;SDS011;6522;49.622;6.126;2024-03-22T10:43:32;31.27;;;28.90;;
12908;SDS011;6522;49.622;6.126;2024-03-22T10:46:19;28.33;;;25.52;;
12908;SDS011;6522;49.622;6.126;2024-03-22T10:49:05;32.80;;;29.97;;
12908;SDS011;6522;49.622;6.126;2024-03-22T10:51:57;31.90;;;29.33;;
12908;SDS011;6522;49.622;6.126;2024-03-22T10:54:43;30.50;;;27.87;;
12908;SDS011;6522;49.622;6.126;2024-03-22T10:57:28;32.88;;;29.58;;
12908;SDS011;6522;49.622;6.126;2024-03-22T11:00:15;31.02;;;28.35;;
12908;SDS011;6522;49.622;6.126;2024-03-22T11:03:04;32.45;;;29.65;;
12908;SDS011;6522;49.622;6.126;2024-03-22T11:05:55;28.67;;;26.08;;
12908;SDS011;6522;49.622;6.126;2024-03-22T11:08:41;31.58;;;28.62;;
12908;SDS011;6522;49.622;6.126;2024-03-22T11:11:28;30.88;;;28.27;;
12908;SDS011;6522;49.622;6.126;2024-03-22T11:14:15;29.97;;;27.53;;
12908;SDS011;6522;49.622;6.126;2024-03-22T11:17:02;30.45;;;27.73;;
12908;SDS011;6522;49.622;6.126;2024-03-22T11:19:48;30.65;;;27.98;;
12908;SDS011;6522;49.622;6.126;2024-03-22T11:22:35;32.97;;;30.57;;
12908;SDS011;6522;49.622;6.126;2024-03-22T11:25:22;29.55;;;26.67;;
12908;SDS011;6522;49.622;6.126;2024-03-22T11:28:09;31.70;;;29.20;;
12908;SDS011;6522;49.622;6.126;2024-03-22T11:30:56;32.35;;;29.70;;
12908;SDS011;6522;49.622;6.126;2024-03-22T11:33:43;32.50;;;29.87;;
12908;SDS011;6522;49.622;6.126;2024-03-22T11:36:29;29.45;;;26.75;;
12908;SDS011;6522;49.622;6.126;2024-03-22T11:39:16;31.63;;;29.13;;
12908;SDS011;6522;49.622;6.126;2024-03-22T11:42:03;28.93;;;26.03;;
12908;SDS011;6522;49.622;6.126;2024-03-22T11:44:49;32.53;;;29.83;;
12908;SDS011;6522;49.622;6.126;2024-03-22T11:47:36;26.85;;;24.35;;
12908;SDS011;6522;49.622;6.126;2024-03-22T11:50:23;31.30;;;28.45;;
12908;SDS011;6522;49.622;6.126;2024-03-22T11:53:10;32.27;;;29.77;;
12908;SDS011;6522;49.622;6.126;2024-03-22T11:55:57;26.55;;;24.35;;
12908;SDS011;6522;49.622;6.126;2024-03-22T11:58:45;29.87;;;27.67;;
12908;SDS011;6522;49.622;6.126;2024-03-22T12:01:31;28.30;;;26.40;;
12908;SDS011;6522;49.622;6.126;2024-03-22T12:04:17;30.25;;;27.83;;
12908;SDS011;6522;49.622;6.126;2024-03-22T12:07:04;29.15;;;26.83;;
12908;SDS011;6522;49.622;6.126;2024-03-22T12:09:51;30.08;;;27.48;;
12908;SDS011;6522;49.622;6.126;2024-03-22T12:12:37;29.35;;;26.98;;
12908;SDS011;6522;49.622;6.126;2024-03-22T12:15:24;28.83;;;26.55;;
12908;SDS011;6522;49.622;6.126;2024-03-22T12:18:11;29.90;;;27.62;;
12908;SDS011;6522;49.622;6.126;2024-03-22T12:20:58;29.08;;;27.05;;
12908;SDS011;6522;49.622;6.126;2024-03-22T12:23:45;28.15;;;26.15;;
12908;SDS011;6522;49.622;6.126;2024-03-22T12:26:31;31.27;;;28.17;;
12908;SDS011;6522;49.622;6.126;2024-03-22T12:29:18;28.00;;;25.50;;
12908;SDS011;6522;49.622;6.126;2024-03-22T12:32:05;30.02;;;27.83;;
12908;SDS011;6522;49.622;6.126;2024-03-22T12:34:52;32.83;;;30.10;;
12908;SDS011;6522;49.622;6.126;2024-03-22T12:37:39;30.50;;;27.50;;
12908;SDS011;6522;49.622;6.126;2024-03-22T12:40:25;29.45;;;27.15;;
12908;SDS011;6522;49.622;6.126;2024-03-22T12:43:12;30.13;;;27.83;;
12908;SDS011;6522;49.622;6.126;2024-03-22T12:45:59;31.50;;;29.37;;
12908;SDS011;6522;49.622;6.126;2024-03-22T12:48:46;30.43;;;28.33;;
12908;SDS011;6522;49.622;6.126;2024-03-22T12:51:33;29.83;;;27.80;;
12908;SDS011;6522;49.622;6.126;2024-03-22T12:54:19;28.50;;;26.50;;
12908;SDS011;6522;49.622;6.126;2024-03-22T12:57:06;28.43;;;26.53;;
12908;SDS011;6522;49.622;6.126;2024-03-22T12:59:53;26.83;;;24.73;;
12908;SDS011;6522;49.622;6.126;2024-03-22T13:02:40;26.10;;;24.20;;
12908;SDS011;6522;49.622;6.126;2024-03-22T13:05:26;25.50;;;23.87;;
12908;SDS011;6522;49.622;6.126;2024-03-22T13:08:13;22.08;;;20.52;;
12908;SDS011;6522;49.622;6.126;2024-03-22T13:11:00;24.83;;;23.17;;
12908;SDS011;6522;49.622;6.126;2024-03-22T13:13:46;23.38;;;21.90;;
12908;SDS011;6522;49.622;6.126;2024-03-22T13:16:33;25.93;;;24.23;;
12908;SDS011;6522;49.622;6.126;2024-03-22T13:19:20;23.37;;;21.87;;
12908;SDS011;6522;49.622;6.126;2024-03-22T13:22:06;26.70;;;24.90;;
12908;SDS011;6522;49.622;6.126;2024-03-22T13:24:54;24.50;;;22.70;;
12908;SDS011;6522;49.622;6.126;2024-03-22T13:27:41;27.50;;;25.77;;
12908;SDS011;6522;49.622;6.126;2024-03-22T13:30:28;25.00;;;23.40;;
12908;SDS011;6522;49.622;6.126;2024-03-22T13:33:14;28.07;;;26.17;;
12908;SDS011;6522;49.622;6.126;2024-03-22T13:36:01;24.45;;;22.83;;
12908;SDS011;6522;49.622;6.126;2024-03-22T13:38:47;25.80;;;24.10;;
12908;SDS011;6522;49.622;6.126;2024-03-22T13:41:34;27.73;;;26.03;;
12908;SDS011;6522;49.622;6.126;2024-03-22T13:44:21;25.83;;;23.93;;
12908;SDS011;6522;49.622;6.126;2024-03-22T13:47:07;26.67;;;24.80;;
12908;SDS011;6522;49.622;6.126;2024-03-22T13:49:54;26.00;;;24.37;;
12908;SDS011;6522;49.622;6.126;2024-03-22T13:52:40;24.05;;;22.35;;
12908;SDS011;6522;49.622;6.126;2024-03-22T13:55:27;25.87;;;24.27;;
12908;SDS011;6522;49.622;6.126;2024-03-22T13:58:14;26.53;;;24.90;;
12908;SDS011;6522;49.622;6.126;2024-03-22T14:01:01;24.85;;;23.15;;
12908;SDS011;6522;49.622;6.126;2024-03-22T14:03:48;26.80;;;25.20;;
12908;SDS011;6522;49.622;6.126;2024-03-22T14:06:35;26.90;;;25.23;;
12908;SDS011;6522;49.622;6.126;2024-03-22T14:09:22;23.85;;;22.25;;
12908;SDS011;6522;49.622;6.126;2024-03-22T14:12:09;25.77;;;23.90;;
12908;SDS011;6522;49.622;6.126;2024-03-22T14:14:55;22.80;;;21.20;;
12908;SDS011;6522;49.622;6.126;2024-03-22T14:17:42;22.40;;;20.97;;
12908;SDS011;6522;49.622;6.126;2024-03-22T14:20:29;22.30;;;20.80;;
12908;SDS011;6522;49.622;6.126;2024-03-22T14:23:16;21.52;;;20.12;;
12908;SDS011;6522;49.622;6.126;2024-03-22T14:26:02;24.03;;;22.73;;
12908;SDS011;6522;49.622;6.126;2024-03-22T14:28:49;20.80;;;19.70;;
12908;SDS011;6522;49.622;6.126;2024-03-22T14:31:36;22.50;;;21.20;;
12908;SDS011;6522;49.622;6.126;2024-03-22T14:34:22;23.20;;;21.73;;
12908;SDS011;6522;49.622;6.126;2024-03-22T14:37:09;22.08;;;20.67;;
12908;SDS011;6522;49.622;6.126;2024-03-22T14:39:56;25.07;;;23.57;;
12908;SDS011;6522;49.622;6.126;2024-03-22T14:42:43;22.90;;;21.37;;
12908;SDS011;6522;49.622;6.126;2024-03-22T14:45:30;24.70;;;23.30;;
12908;SDS011;6522;49.622;6.126;2024-03-22T14:48:16;22.10;;;20.70;;
12908;SDS011;6522;49.622;6.126;2024-03-22T14:51:03;22.10;;;20.70;;
12908;SDS011;6522;49.622;6.126;2024-03-22T14:53:50;26.20;;;24.50;;
12908;SDS011;6522;49.622;6.126;2024-03-22T14:56:37;22.83;;;21.30;;
12908;SDS011;6522;49.622;6.126;2024-03-22T14:59:26;23.50;;;22.20;;
12908;SDS011;6522;49.622;6.126;2024-03-22T15:02:10;22.17;;;20.67;;
12908;SDS011;6522;49.622;6.126;2024-03-22T15:04:57;21.75;;;20.35;;
12908;SDS011;6522;49.622;6.126;2024-03-22T15:07:44;24.80;;;23.30;;
12908;SDS011;6522;49.622;6.126;2024-03-22T15:10:31;20.52;;;19.23;;
12908;SDS011;6522;49.622;6.126;2024-03-22T15:13:18;26.10;;;24.20;;
12908;SDS011;6522;49.622;6.126;2024-03-22T15:16:04;20.90;;;19.60;;
12908;SDS011;6522;49.622;6.126;2024-03-22T15:18:51;22.70;;;21.02;;
12908;SDS011;6522;49.622;6.126;2024-03-22T15:21:38;23.40;;;22.00;;
12908;SDS011;6522;49.622;6.126;2024-03-22T15:24:25;21.02;;;19.52;;
12908;SDS011;6522;49.622;6.126;2024-03-22T15:27:12;21.23;;;19.83;;
12908;SDS011;6522;49.622;6.126;2024-03-22T15:29:58;23.90;;;22.40;;
12908;SDS011;6522;49.622;6.126;2024-03-22T15:32:45;21.00;;;19.55;;
12908;SDS011;6522;49.622;6.126;2024-03-22T15:35:31;21.90;;;20.40;;
12908;SDS011;6522;49.622;6.126;2024-03-22T15:38:18;24.67;;;23.07;;
12908;SDS011;6522;49.622;6.126;2024-03-22T15:41:05;22.33;;;20.92;;
12908;SDS011;6522;49.622;6.126;2024-03-22T15:43:52;22.67;;;20.98;;
12908;SDS011;6522;49.622;6.126;2024-03-22T15:46:38;25.03;;;23.63;;
12908;SDS011;6522;49.622;6.126;2024-03-22T15:49:25;22.50;;;21.00;;
12908;SDS011;6522;49.622;6.126;2024-03-22T15:52:12;22.00;;;20.50;;
12908;SDS011;6522;49.622;6.126;2024-03-22T15:54:59;24.63;;;23.00;;
12908;SDS011;6522;49.622;6.126;2024-03-22T15:57:45;21.08;;;19.60;;
12908;SDS011;6522;49.622;6.126;2024-03-22T16:00:32;20.88;;;19.27;;
12908;SDS011;6522;49.622;6.126;2024-03-22T16:03:19;25.27;;;23.77;;
12908;SDS011;6522;49.622;6.126;2024-03-22T16:06:05;20.50;;;19.20;;
12908;SDS011;6522;49.622;6.126;2024-03-22T16:08:52;20.50;;;19.20;;
12908;SDS011;6522;49.622;6.126;2024-03-22T16:11:39;25.00;;;23.47;;
12908;SDS011;6522;49.622;6.126;2024-03-22T16:14:26;20.33;;;18.92;;
12908;SDS011;6522;49.622;6.126;2024-03-22T16:17:13;20.80;;;19.30;;
12908;SDS011;6522;49.622;6.126;2024-03-22T16:19:59;25.70;;;24.20;;
12908;SDS011;6522;49.622;6.126;2024-03-22T16:22:46;19.17;;;17.97;;
12908;SDS011;6522;49.622;6.126;2024-03-22T16:25:35;19.70;;;18.50;;
12908;SDS011;6522;49.622;6.126;2024-03-22T16:28:23;21.80;;;20.60;;
12908;SDS011;6522;49.622;6.126;2024-03-22T16:31:09;20.10;;;18.70;;